sensor_id;sensor_type;location;lat;lon;timestamp;P1;durP1;ratioP1;P2;durP2;ratioP2
57389;SDS011;43217;52.694;6.214;2023-04-16T00:02:10;59.33;;;27.15;;
57389;SDS011;43217;52.694;6.214;2023-04-16T00:04:36;61.72;;;26.90;;
57389;SDS011;43217;52.694;6.214;2023-04-16T00:07:02;57.58;;;26.50;;
57389;SDS011;43217;52.694;6.214;2023-04-16T00:09:27;56.90;;;26.90;;
57389;SDS011;43217;52.694;6.214;2023-04-16T00:11:53;59.17;;;26.92;;
57389;SDS011;43217;52.694;6.214;2023-04-16T00:14:19;60.00;;;27.15;;
57389;SDS011;43217;52.694;6.214;2023-04-16T00:16:44;62.35;;;27.83;;
57389;SDS011;43217;52.694;6.214;2023-04-16T00:19:10;58.20;;;28.35;;
57389;SDS011;43217;52.694;6.214;2023-04-16T00:21:36;60.10;;;27.38;;
57389;SDS011;43217;52.694;6.214;2023-04-16T00:24:01;56.50;;;28.05;;
57389;SDS011;43217;52.694;6.214;2023-04-16T00:26:27;58.92;;;28.00;;
57389;SDS011;43217;52.694;6.214;2023-04-16T00:28:53;59.58;;;26.85;;
57389;SDS011;43217;52.694;6.214;2023-04-16T00:31:25;64.50;;;28.52;;
57389;SDS011;43217;52.694;6.214;2023-04-16T00:33:51;58.85;;;28.38;;
57389;SDS011;43217;52.694;6.214;2023-04-16T00:36:17;58.92;;;28.90;;
57389;SDS011;43217;52.694;6.214;2023-04-16T00:38:43;61.28;;;27.33;;
57389;SDS011;43217;52.694;6.214;2023-04-16T00:41:08;61.63;;;27.92;;
57389;SDS011;43217;52.694;6.214;2023-04-16T00:43:34;61.53;;;28.38;;
57389;SDS011;43217;52.694;6.214;2023-04-16T00:45:59;56.92;;;29.55;;
57389;SDS011;43217;52.694;6.214;2023-04-16T00:48:28;57.65;;;28.65;;
57389;SDS011;43217;52.694;6.214;2023-04-16T00:50:56;63.35;;;29.70;;
57389;SDS011;43217;52.694;6.214;2023-04-16T00:53:22;66.15;;;30.10;;
57389;SDS011;43217;52.694;6.214;2023-04-16T00:55:48;67.22;;;30.73;;
57389;SDS011;43217;52.694;6.214;2023-04-16T00:58:14;72.63;;;31.42;;
57389;SDS011;43217;52.694;6.214;2023-04-16T01:00:40;73.00;;;32.50;;
57389;SDS011;43217;52.694;6.214;2023-04-16T01:03:06;72.78;;;31.67;;
57389;SDS011;43217;52.694;6.214;2023-04-16T01:05:32;72.43;;;31.77;;
57389;SDS011;43217;52.694;6.214;2023-04-16T01:08:00;77.82;;;33.53;;
57389;SDS011;43217;52.694;6.214;2023-04-16T01:10:25;77.75;;;31.65;;
57389;SDS011;43217;52.694;6.214;2023-04-16T01:12:51;69.25;;;31.33;;
57389;SDS011;43217;52.694;6.214;2023-04-16T01:15:17;83.90;;;32.83;;
57389;SDS011;43217;52.694;6.214;2023-04-16T01:17:43;75.78;;;31.88;;
57389;SDS011;43217;52.694;6.214;2023-04-16T01:20:10;83.35;;;35.45;;
57389;SDS011;43217;52.694;6.214;2023-04-16T01:22:36;79.75;;;35.17;;
57389;SDS011;43217;52.694;6.214;2023-04-16T01:25:01;85.35;;;34.70;;
57389;SDS011;43217;52.694;6.214;2023-04-16T01:27:27;77.20;;;34.67;;
57389;SDS011;43217;52.694;6.214;2023-04-16T01:29:53;76.70;;;34.25;;
57389;SDS011;43217;52.694;6.214;2023-04-16T01:32:20;70.97;;;32.15;;
57389;SDS011;43217;52.694;6.214;2023-04-16T01:34:46;83.93;;;36.83;;
57389;SDS011;43217;52.694;6.214;2023-04-16T01:37:11;76.93;;;32.97;;
57389;SDS011;43217;52.694;6.214;2023-04-16T01:39:37;78.82;;;33.88;;
57389;SDS011;43217;52.694;6.214;2023-04-16T01:42:02;76.15;;;33.47;;
57389;SDS011;43217;52.694;6.214;2023-04-16T01:44:28;75.68;;;33.75;;
57389;SDS011;43217;52.694;6.214;2023-04-16T01:46:55;78.25;;;36.10;;
57389;SDS011;43217;52.694;6.214;2023-04-16T01:49:20;79.38;;;34.95;;
57389;SDS011;43217;52.694;6.214;2023-04-16T01:51:46;75.60;;;34.75;;
57389;SDS011;43217;52.694;6.214;2023-04-16T01:54:12;78.93;;;35.60;;
57389;SDS011;43217;52.694;6.214;2023-04-16T01:56:38;77.57;;;34.13;;
57389;SDS011;43217;52.694;6.214;2023-04-16T01:59:03;75.55;;;32.85;;
57389;SDS011;43217;52.694;6.214;2023-04-16T02:01:29;71.63;;;32.78;;
57389;SDS011;43217;52.694;6.214;2023-04-16T02:03:55;71.65;;;33.25;;
57389;SDS011;43217;52.694;6.214;2023-04-16T02:06:21;67.25;;;32.10;;
57389;SDS011;43217;52.694;6.214;2023-04-16T02:08:47;72.60;;;33.53;;
57389;SDS011;43217;52.694;6.214;2023-04-16T02:11:13;65.35;;;32.30;;
57389;SDS011;43217;52.694;6.214;2023-04-16T02:13:39;70.32;;;33.03;;
57389;SDS011;43217;52.694;6.214;2023-04-16T02:16:04;63.30;;;31.38;;
57389;SDS011;43217;52.694;6.214;2023-04-16T02:18:30;65.60;;;32.25;;
57389;SDS011;43217;52.694;6.214;2023-04-16T02:20:56;66.93;;;32.40;;
57389;SDS011;43217;52.694;6.214;2023-04-16T02:23:24;63.63;;;31.75;;
57389;SDS011;43217;52.694;6.214;2023-04-16T02:25:49;68.95;;;33.00;;
57389;SDS011;43217;52.694;6.214;2023-04-16T02:28:16;60.00;;;31.23;;
57389;SDS011;43217;52.694;6.214;2023-04-16T02:30:42;63.85;;;32.88;;
57389;SDS011;43217;52.694;6.214;2023-04-16T02:33:08;59.83;;;31.45;;
57389;SDS011;43217;52.694;6.214;2023-04-16T02:35:35;65.57;;;33.35;;
57389;SDS011;43217;52.694;6.214;2023-04-16T02:38:02;61.45;;;31.85;;
57389;SDS011;43217;52.694;6.214;2023-04-16T02:40:29;57.63;;;30.73;;
57389;SDS011;43217;52.694;6.214;2023-04-16T02:42:55;60.80;;;31.70;;
57389;SDS011;43217;52.694;6.214;2023-04-16T02:45:21;62.63;;;31.08;;
57389;SDS011;43217;52.694;6.214;2023-04-16T02:47:47;60.95;;;32.35;;
57389;SDS011;43217;52.694;6.214;2023-04-16T02:50:13;58.03;;;31.13;;
57389;SDS011;43217;52.694;6.214;2023-04-16T02:52:39;67.10;;;32.40;;
57389;SDS011;43217;52.694;6.214;2023-04-16T02:55:05;59.33;;;31.95;;
57389;SDS011;43217;52.694;6.214;2023-04-16T02:57:32;59.95;;;31.60;;
57389;SDS011;43217;52.694;6.214;2023-04-16T02:59:58;62.90;;;32.95;;
57389;SDS011;43217;52.694;6.214;2023-04-16T03:02:24;63.40;;;32.17;;
57389;SDS011;43217;52.694;6.214;2023-04-16T03:04:50;61.15;;;30.92;;
57389;SDS011;43217;52.694;6.214;2023-04-16T03:07:16;62.17;;;32.35;;
57389;SDS011;43217;52.694;6.214;2023-04-16T03:09:43;57.60;;;31.50;;
57389;SDS011;43217;52.694;6.214;2023-04-16T03:12:09;62.60;;;31.58;;
57389;SDS011;43217;52.694;6.214;2023-04-16T03:14:35;55.10;;;31.20;;
57389;SDS011;43217;52.694;6.214;2023-04-16T03:17:00;62.40;;;31.25;;
57389;SDS011;43217;52.694;6.214;2023-04-16T03:19:26;61.70;;;33.67;;
57389;SDS011;43217;52.694;6.214;2023-04-16T03:21:51;58.80;;;31.55;;
57389;SDS011;43217;52.694;6.214;2023-04-16T03:24:17;58.15;;;31.77;;
57389;SDS011;43217;52.694;6.214;2023-04-16T03:26:43;58.92;;;30.77;;
57389;SDS011;43217;52.694;6.214;2023-04-16T03:29:08;53.40;;;30.77;;
57389;SDS011;43217;52.694;6.214;2023-04-16T03:31:34;65.32;;;31.92;;
57389;SDS011;43217;52.694;6.214;2023-04-16T03:34:00;61.47;;;33.05;;
57389;SDS011;43217;52.694;6.214;2023-04-16T03:36:26;61.92;;;30.75;;
57389;SDS011;43217;52.694;6.214;2023-04-16T03:38:52;50.50;;;30.43;;
57389;SDS011;43217;52.694;6.214;2023-04-16T03:41:18;59.13;;;31.63;;
57389;SDS011;43217;52.694;6.214;2023-04-16T03:43:43;62.17;;;32.35;;
57389;SDS011;43217;52.694;6.214;2023-04-16T03:46:09;57.50;;;32.33;;
57389;SDS011;43217;52.694;6.214;2023-04-16T03:48:35;52.47;;;31.05;;
57389;SDS011;43217;52.694;6.214;2023-04-16T03:51:01;50.60;;;30.45;;
57389;SDS011;43217;52.694;6.214;2023-04-16T03:53:27;57.67;;;30.30;;
57389;SDS011;43217;52.694;6.214;2023-04-16T03:55:52;60.33;;;31.27;;
57389;SDS011;43217;52.694;6.214;2023-04-16T03:58:18;54.22;;;29.55;;
57389;SDS011;43217;52.694;6.214;2023-04-16T04:00:44;58.03;;;30.73;;
57389;SDS011;43217;52.694;6.214;2023-04-16T04:03:10;56.53;;;30.75;;
57389;SDS011;43217;52.694;6.214;2023-04-16T04:05:36;51.70;;;31.60;;
57389;SDS011;43217;52.694;6.214;2023-04-16T04:08:03;58.20;;;32.08;;
57389;SDS011;43217;52.694;6.214;2023-04-16T04:10:30;55.00;;;32.42;;
57389;SDS011;43217;52.694;6.214;2023-04-16T04:13:01;58.30;;;30.98;;
57389;SDS011;43217;52.694;6.214;2023-04-16T04:15:28;55.17;;;31.15;;
57389;SDS011;43217;52.694;6.214;2023-04-16T04:17:53;62.67;;;34.10;;
57389;SDS011;43217;52.694;6.214;2023-04-16T04:20:20;60.53;;;32.42;;
57389;SDS011;43217;52.694;6.214;2023-04-16T04:22:45;62.38;;;33.50;;
57389;SDS011;43217;52.694;6.214;2023-04-16T04:25:11;65.22;;;33.35;;
57389;SDS011;43217;52.694;6.214;2023-04-16T04:27:37;58.40;;;31.58;;
57389;SDS011;43217;52.694;6.214;2023-04-16T04:30:03;62.50;;;32.92;;
57389;SDS011;43217;52.694;6.214;2023-04-16T04:32:29;59.80;;;32.72;;
57389;SDS011;43217;52.694;6.214;2023-04-16T04:34:55;58.92;;;33.30;;
57389;SDS011;43217;52.694;6.214;2023-04-16T04:37:21;54.65;;;33.25;;
57389;SDS011;43217;52.694;6.214;2023-04-16T04:39:47;56.17;;;33.33;;
57389;SDS011;43217;52.694;6.214;2023-04-16T04:42:13;56.38;;;33.05;;
57389;SDS011;43217;52.694;6.214;2023-04-16T04:44:42;59.47;;;32.90;;
57389;SDS011;43217;52.694;6.214;2023-04-16T04:47:07;60.03;;;34.83;;
57389;SDS011;43217;52.694;6.214;2023-04-16T04:49:33;51.92;;;32.13;;
57389;SDS011;43217;52.694;6.214;2023-04-16T04:51:59;57.35;;;31.65;;
57389;SDS011;43217;52.694;6.214;2023-04-16T04:54:25;51.60;;;32.97;;
57389;SDS011;43217;52.694;6.214;2023-04-16T04:56:52;55.60;;;32.90;;
57389;SDS011;43217;52.694;6.214;2023-04-16T04:59:19;56.55;;;34.20;;
57389;SDS011;43217;52.694;6.214;2023-04-16T05:01:45;58.40;;;32.53;;
57389;SDS011;43217;52.694;6.214;2023-04-16T05:04:10;56.17;;;32.90;;
57389;SDS011;43217;52.694;6.214;2023-04-16T05:06:36;62.92;;;35.28;;
57389;SDS011;43217;52.694;6.214;2023-04-16T05:09:01;63.70;;;34.67;;
57389;SDS011;43217;52.694;6.214;2023-04-16T05:11:28;56.05;;;33.63;;
57389;SDS011;43217;52.694;6.214;2023-04-16T05:13:54;51.78;;;33.05;;
57389;SDS011;43217;52.694;6.214;2023-04-16T05:16:19;59.78;;;33.25;;
57389;SDS011;43217;52.694;6.214;2023-04-16T05:18:45;63.88;;;34.95;;
57389;SDS011;43217;52.694;6.214;2023-04-16T05:21:10;67.15;;;35.90;;
57389;SDS011;43217;52.694;6.214;2023-04-16T05:23:36;63.47;;;35.78;;
57389;SDS011;43217;52.694;6.214;2023-04-16T05:26:02;62.92;;;34.47;;
57389;SDS011;43217;52.694;6.214;2023-04-16T05:28:28;71.15;;;37.65;;
57389;SDS011;43217;52.694;6.214;2023-04-16T05:30:54;59.65;;;35.60;;
57389;SDS011;43217;52.694;6.214;2023-04-16T05:33:20;63.67;;;35.15;;
57389;SDS011;43217;52.694;6.214;2023-04-16T05:35:45;66.20;;;37.47;;
57389;SDS011;43217;52.694;6.214;2023-04-16T05:38:11;63.60;;;37.28;;
57389;SDS011;43217;52.694;6.214;2023-04-16T05:40:37;62.05;;;37.00;;
57389;SDS011;43217;52.694;6.214;2023-04-16T05:43:02;68.15;;;38.10;;
57389;SDS011;43217;52.694;6.214;2023-04-16T05:45:28;65.40;;;37.80;;
57389;SDS011;43217;52.694;6.214;2023-04-16T05:47:55;65.17;;;38.50;;
57389;SDS011;43217;52.694;6.214;2023-04-16T05:50:20;62.92;;;35.75;;
57389;SDS011;43217;52.694;6.214;2023-04-16T05:52:46;63.47;;;37.25;;
57389;SDS011;43217;52.694;6.214;2023-04-16T05:55:12;71.15;;;39.60;;
57389;SDS011;43217;52.694;6.214;2023-04-16T05:57:37;62.67;;;37.08;;
57389;SDS011;43217;52.694;6.214;2023-04-16T06:00:03;62.83;;;37.17;;
57389;SDS011;43217;52.694;6.214;2023-04-16T06:02:29;59.25;;;36.63;;
57389;SDS011;43217;52.694;6.214;2023-04-16T06:04:55;67.60;;;38.38;;
57389;SDS011;43217;52.694;6.214;2023-04-16T06:07:21;66.38;;;38.20;;
57389;SDS011;43217;52.694;6.214;2023-04-16T06:09:46;61.58;;;36.30;;
57389;SDS011;43217;52.694;6.214;2023-04-16T06:12:12;60.80;;;36.83;;
57389;SDS011;43217;52.694;6.214;2023-04-16T06:14:37;61.25;;;37.22;;
57389;SDS011;43217;52.694;6.214;2023-04-16T06:17:03;63.85;;;37.55;;
57389;SDS011;43217;52.694;6.214;2023-04-16T06:19:29;62.67;;;37.20;;
57389;SDS011;43217;52.694;6.214;2023-04-16T06:21:54;65.70;;;37.65;;
57389;SDS011;43217;52.694;6.214;2023-04-16T06:24:21;65.38;;;37.20;;
57389;SDS011;43217;52.694;6.214;2023-04-16T06:26:49;62.88;;;35.45;;
57389;SDS011;43217;52.694;6.214;2023-04-16T06:29:14;65.05;;;35.80;;
57389;SDS011;43217;52.694;6.214;2023-04-16T06:31:40;66.40;;;36.40;;
57389;SDS011;43217;52.694;6.214;2023-04-16T06:34:06;58.90;;;34.42;;
57389;SDS011;43217;52.694;6.214;2023-04-16T06:36:31;53.88;;;34.25;;
57389;SDS011;43217;52.694;6.214;2023-04-16T06:38:57;50.00;;;32.75;;
57389;SDS011;43217;52.694;6.214;2023-04-16T06:41:23;49.80;;;32.13;;
57389;SDS011;43217;52.694;6.214;2023-04-16T06:43:50;50.47;;;31.73;;
57389;SDS011;43217;52.694;6.214;2023-04-16T06:46:16;49.10;;;29.35;;
57389;SDS011;43217;52.694;6.214;2023-04-16T06:48:41;48.88;;;31.38;;
57389;SDS011;43217;52.694;6.214;2023-04-16T06:51:07;46.88;;;30.15;;
57389;SDS011;43217;52.694;6.214;2023-04-16T06:53:33;50.80;;;31.65;;
57389;SDS011;43217;52.694;6.214;2023-04-16T06:56:01;58.13;;;39.60;;
57389;SDS011;43217;52.694;6.214;2023-04-16T06:58:27;55.45;;;34.90;;
57389;SDS011;43217;52.694;6.214;2023-04-16T07:00:53;50.88;;;30.10;;
57389;SDS011;43217;52.694;6.214;2023-04-16T07:03:18;41.65;;;28.13;;
57389;SDS011;43217;52.694;6.214;2023-04-16T07:05:44;48.63;;;31.05;;
57389;SDS011;43217;52.694;6.214;2023-04-16T07:08:09;44.80;;;26.75;;
57389;SDS011;43217;52.694;6.214;2023-04-16T07:10:35;49.25;;;29.10;;
57389;SDS011;43217;52.694;6.214;2023-04-16T07:13:01;46.03;;;29.98;;
57389;SDS011;43217;52.694;6.214;2023-04-16T07:15:27;42.08;;;26.60;;
57389;SDS011;43217;52.694;6.214;2023-04-16T07:17:53;41.40;;;26.88;;
57389;SDS011;43217;52.694;6.214;2023-04-16T07:20:19;49.05;;;31.55;;
57389;SDS011;43217;52.694;6.214;2023-04-16T07:22:45;44.25;;;28.55;;
57389;SDS011;43217;52.694;6.214;2023-04-16T07:25:11;42.83;;;29.02;;
57389;SDS011;43217;52.694;6.214;2023-04-16T07:27:36;40.17;;;27.92;;
57389;SDS011;43217;52.694;6.214;2023-04-16T07:30:02;44.95;;;28.77;;
57389;SDS011;43217;52.694;6.214;2023-04-16T07:32:28;42.33;;;28.20;;
57389;SDS011;43217;52.694;6.214;2023-04-16T07:34:53;47.10;;;29.83;;
57389;SDS011;43217;52.694;6.214;2023-04-16T07:37:20;40.35;;;27.67;;
57389;SDS011;43217;52.694;6.214;2023-04-16T07:39:45;45.55;;;27.58;;
57389;SDS011;43217;52.694;6.214;2023-04-16T07:42:11;40.88;;;26.65;;
57389;SDS011;43217;52.694;6.214;2023-04-16T07:44:38;37.25;;;26.20;;
57389;SDS011;43217;52.694;6.214;2023-04-16T07:47:03;35.78;;;25.77;;
57389;SDS011;43217;52.694;6.214;2023-04-16T07:49:29;39.40;;;24.92;;
57389;SDS011;43217;52.694;6.214;2023-04-16T07:51:55;42.40;;;26.15;;
57389;SDS011;43217;52.694;6.214;2023-04-16T07:54:20;37.60;;;24.88;;
57389;SDS011;43217;52.694;6.214;2023-04-16T07:56:47;34.40;;;24.73;;
57389;SDS011;43217;52.694;6.214;2023-04-16T07:59:12;34.65;;;24.15;;
57389;SDS011;43217;52.694;6.214;2023-04-16T08:01:38;34.45;;;23.08;;
57389;SDS011;43217;52.694;6.214;2023-04-16T08:04:04;35.35;;;24.30;;
57389;SDS011;43217;52.694;6.214;2023-04-16T08:06:29;32.08;;;22.02;;
57389;SDS011;43217;52.694;6.214;2023-04-16T08:08:55;35.35;;;23.42;;
57389;SDS011;43217;52.694;6.214;2023-04-16T08:11:21;35.92;;;23.95;;
57389;SDS011;43217;52.694;6.214;2023-04-16T08:13:46;34.75;;;22.58;;
57389;SDS011;43217;52.694;6.214;2023-04-16T08:16:12;32.63;;;21.67;;
57389;SDS011;43217;52.694;6.214;2023-04-16T08:18:38;32.78;;;22.15;;
57389;SDS011;43217;52.694;6.214;2023-04-16T08:21:03;31.70;;;22.10;;
57389;SDS011;43217;52.694;6.214;2023-04-16T08:23:29;32.15;;;22.25;;
57389;SDS011;43217;52.694;6.214;2023-04-16T08:25:56;32.47;;;22.88;;
57389;SDS011;43217;52.694;6.214;2023-04-16T08:28:21;29.73;;;21.63;;
57389;SDS011;43217;52.694;6.214;2023-04-16T08:30:47;28.52;;;21.20;;
57389;SDS011;43217;52.694;6.214;2023-04-16T08:33:13;34.45;;;20.65;;
57389;SDS011;43217;52.694;6.214;2023-04-16T08:35:38;30.65;;;19.65;;
57389;SDS011;43217;52.694;6.214;2023-04-16T08:38:05;26.55;;;19.65;;
57389;SDS011;43217;52.694;6.214;2023-04-16T08:40:31;25.80;;;20.80;;
57389;SDS011;43217;52.694;6.214;2023-04-16T08:43:01;27.52;;;20.15;;
57389;SDS011;43217;52.694;6.214;2023-04-16T08:45:33;30.95;;;20.92;;
57389;SDS011;43217;52.694;6.214;2023-04-16T08:48:00;29.20;;;20.13;;
57389;SDS011;43217;52.694;6.214;2023-04-16T08:50:28;30.75;;;19.38;;
57389;SDS011;43217;52.694;6.214;2023-04-16T08:53:00;33.70;;;20.63;;
57389;SDS011;43217;52.694;6.214;2023-04-16T08:55:37;28.73;;;19.35;;
57389;SDS011;43217;52.694;6.214;2023-04-16T08:58:08;30.85;;;20.15;;
57389;SDS011;43217;52.694;6.214;2023-04-16T09:00:42;23.80;;;18.52;;
57389;SDS011;43217;52.694;6.214;2023-04-16T09:03:08;23.88;;;18.95;;
57389;SDS011;43217;52.694;6.214;2023-04-16T09:05:34;25.15;;;19.02;;
57389;SDS011;43217;52.694;6.214;2023-04-16T09:08:01;25.50;;;18.55;;
57389;SDS011;43217;52.694;6.214;2023-04-16T09:10:27;25.77;;;19.85;;
57389;SDS011;43217;52.694;6.214;2023-04-16T09:12:55;37.67;;;32.08;;
57389;SDS011;43217;52.694;6.214;2023-04-16T09:15:22;28.80;;;19.20;;
57389;SDS011;43217;52.694;6.214;2023-04-16T09:17:49;27.63;;;18.23;;
57389;SDS011;43217;52.694;6.214;2023-04-16T09:20:15;29.38;;;18.55;;
57389;SDS011;43217;52.694;6.214;2023-04-16T09:22:41;23.88;;;18.05;;
57389;SDS011;43217;52.694;6.214;2023-04-16T09:25:08;27.33;;;17.98;;
57389;SDS011;43217;52.694;6.214;2023-04-16T09:27:35;27.23;;;18.05;;
57389;SDS011;43217;52.694;6.214;2023-04-16T09:30:17;27.52;;;18.00;;
57389;SDS011;43217;52.694;6.214;2023-04-16T09:32:47;24.23;;;18.00;;
57389;SDS011;43217;52.694;6.214;2023-04-16T09:35:13;22.45;;;17.55;;
57389;SDS011;43217;52.694;6.214;2023-04-16T09:37:40;28.02;;;17.83;;
57389;SDS011;43217;52.694;6.214;2023-04-16T09:40:05;25.52;;;18.30;;
57389;SDS011;43217;52.694;6.214;2023-04-16T09:45:01;26.10;;;18.38;;
57389;SDS011;43217;52.694;6.214;2023-04-16T09:47:38;23.85;;;17.95;;
57389;SDS011;43217;52.694;6.214;2023-04-16T09:50:05;23.75;;;17.63;;
57389;SDS011;43217;52.694;6.214;2023-04-16T09:52:35;23.88;;;17.00;;
57389;SDS011;43217;52.694;6.214;2023-04-16T09:55:01;26.50;;;18.10;;
57389;SDS011;43217;52.694;6.214;2023-04-16T09:57:26;25.75;;;17.50;;
57389;SDS011;43217;52.694;6.214;2023-04-16T09:59:54;22.05;;;16.45;;
57389;SDS011;43217;52.694;6.214;2023-04-16T10:02:26;25.48;;;17.95;;
57389;SDS011;43217;52.694;6.214;2023-04-16T10:04:52;24.30;;;17.77;;
57389;SDS011;43217;52.694;6.214;2023-04-16T10:07:19;22.33;;;17.85;;
57389;SDS011;43217;52.694;6.214;2023-04-16T10:09:48;26.70;;;18.00;;
57389;SDS011;43217;52.694;6.214;2023-04-16T10:12:14;25.88;;;17.73;;
57389;SDS011;43217;52.694;6.214;2023-04-16T10:14:40;24.42;;;17.60;;
57389;SDS011;43217;52.694;6.214;2023-04-16T10:17:07;21.60;;;17.40;;
57389;SDS011;43217;52.694;6.214;2023-04-16T10:19:33;24.70;;;17.23;;
57389;SDS011;43217;52.694;6.214;2023-04-16T10:22:00;24.10;;;17.02;;
57389;SDS011;43217;52.694;6.214;2023-04-16T10:24:27;26.33;;;17.15;;
57389;SDS011;43217;52.694;6.214;2023-04-16T10:26:54;25.00;;;17.98;;
57389;SDS011;43217;52.694;6.214;2023-04-16T10:29:20;26.58;;;18.02;;
57389;SDS011;43217;52.694;6.214;2023-04-16T10:31:46;26.45;;;16.65;;
57389;SDS011;43217;52.694;6.214;2023-04-16T10:34:13;24.92;;;17.42;;
57389;SDS011;43217;52.694;6.214;2023-04-16T10:36:39;25.20;;;16.63;;
57389;SDS011;43217;52.694;6.214;2023-04-16T10:39:09;23.38;;;15.85;;
57389;SDS011;43217;52.694;6.214;2023-04-16T10:41:36;23.33;;;16.38;;
57389;SDS011;43217;52.694;6.214;2023-04-16T10:44:06;21.70;;;15.32;;
57389;SDS011;43217;52.694;6.214;2023-04-16T10:49:18;21.17;;;15.52;;
57389;SDS011;43217;52.694;6.214;2023-04-16T10:51:55;20.05;;;15.02;;
57389;SDS011;43217;52.694;6.214;2023-04-16T10:54:22;24.02;;;16.67;;
57389;SDS011;43217;52.694;6.214;2023-04-16T10:59:19;25.02;;;15.73;;
57389;SDS011;43217;52.694;6.214;2023-04-16T11:01:46;21.67;;;15.35;;
57389;SDS011;43217;52.694;6.214;2023-04-16T11:12:45;18.83;;;15.15;;
57389;SDS011;43217;52.694;6.214;2023-04-16T11:15:15;22.67;;;14.57;;
57389;SDS011;43217;52.694;6.214;2023-04-16T11:17:46;21.33;;;15.05;;
57389;SDS011;43217;52.694;6.214;2023-04-16T11:20:15;25.77;;;17.10;;
57389;SDS011;43217;52.694;6.214;2023-04-16T11:22:41;24.15;;;16.20;;
57389;SDS011;43217;52.694;6.214;2023-04-16T11:25:07;22.92;;;15.25;;
57389;SDS011;43217;52.694;6.214;2023-04-16T11:27:33;22.73;;;14.75;;
57389;SDS011;43217;52.694;6.214;2023-04-16T11:30:00;23.95;;;15.13;;
57389;SDS011;43217;52.694;6.214;2023-04-16T11:32:31;22.27;;;15.93;;
57389;SDS011;43217;52.694;6.214;2023-04-16T11:34:59;22.73;;;16.13;;
57389;SDS011;43217;52.694;6.214;2023-04-16T11:37:38;25.60;;;15.57;;
57389;SDS011;43217;52.694;6.214;2023-04-16T11:40:06;24.33;;;14.73;;
57389;SDS011;43217;52.694;6.214;2023-04-16T11:42:34;20.95;;;16.15;;
57389;SDS011;43217;52.694;6.214;2023-04-16T11:45:07;21.65;;;15.07;;
57389;SDS011;43217;52.694;6.214;2023-04-16T11:47:44;24.15;;;15.25;;
57389;SDS011;43217;52.694;6.214;2023-04-16T11:50:15;19.70;;;14.82;;
57389;SDS011;43217;52.694;6.214;2023-04-16T11:52:45;24.35;;;15.23;;
57389;SDS011;43217;52.694;6.214;2023-04-16T11:55:11;21.00;;;16.10;;
57389;SDS011;43217;52.694;6.214;2023-04-16T11:57:37;23.33;;;15.05;;
57389;SDS011;43217;52.694;6.214;2023-04-16T12:00:03;23.73;;;15.07;;
57389;SDS011;43217;52.694;6.214;2023-04-16T12:02:39;25.38;;;16.05;;
57389;SDS011;43217;52.694;6.214;2023-04-16T12:07:55;22.63;;;15.25;;
57389;SDS011;43217;52.694;6.214;2023-04-16T12:10:22;25.38;;;16.55;;
57389;SDS011;43217;52.694;6.214;2023-04-16T12:12:48;23.73;;;16.95;;
57389;SDS011;43217;52.694;6.214;2023-04-16T12:15:13;27.20;;;17.55;;
57389;SDS011;43217;52.694;6.214;2023-04-16T12:17:39;24.17;;;16.58;;
57389;SDS011;43217;52.694;6.214;2023-04-16T12:20:08;22.70;;;16.63;;
57389;SDS011;43217;52.694;6.214;2023-04-16T12:22:36;26.27;;;16.13;;
57389;SDS011;43217;52.694;6.214;2023-04-16T12:25:04;23.60;;;15.90;;
57389;SDS011;43217;52.694;6.214;2023-04-16T12:30:07;20.77;;;14.18;;
57389;SDS011;43217;52.694;6.214;2023-04-16T12:32:33;22.85;;;14.60;;
57389;SDS011;43217;52.694;6.214;2023-04-16T12:34:59;21.20;;;14.93;;
57389;SDS011;43217;52.694;6.214;2023-04-16T12:37:25;24.02;;;15.15;;
57389;SDS011;43217;52.694;6.214;2023-04-16T12:39:51;26.63;;;15.65;;
57389;SDS011;43217;52.694;6.214;2023-04-16T12:42:16;23.25;;;14.88;;
57389;SDS011;43217;52.694;6.214;2023-04-16T12:44:42;25.13;;;15.40;;
57389;SDS011;43217;52.694;6.214;2023-04-16T12:47:07;22.95;;;14.13;;
57389;SDS011;43217;52.694;6.214;2023-04-16T12:49:34;21.17;;;15.75;;
57389;SDS011;43217;52.694;6.214;2023-04-16T12:52:01;20.42;;;15.32;;
57389;SDS011;43217;52.694;6.214;2023-04-16T12:54:26;21.45;;;15.02;;
57389;SDS011;43217;52.694;6.214;2023-04-16T12:56:55;23.73;;;16.05;;
57389;SDS011;43217;52.694;6.214;2023-04-16T12:59:22;20.05;;;14.63;;
57389;SDS011;43217;52.694;6.214;2023-04-16T13:01:48;20.90;;;16.42;;
57389;SDS011;43217;52.694;6.214;2023-04-16T13:04:13;23.65;;;16.23;;
57389;SDS011;43217;52.694;6.214;2023-04-16T13:06:39;26.88;;;18.30;;
57389;SDS011;43217;52.694;6.214;2023-04-16T13:09:05;23.17;;;16.45;;
57389;SDS011;43217;52.694;6.214;2023-04-16T13:11:30;20.92;;;16.25;;
57389;SDS011;43217;52.694;6.214;2023-04-16T13:13:56;24.77;;;16.58;;
57389;SDS011;43217;52.694;6.214;2023-04-16T13:16:22;25.75;;;17.73;;
57389;SDS011;43217;52.694;6.214;2023-04-16T13:18:48;23.85;;;16.88;;
57389;SDS011;43217;52.694;6.214;2023-04-16T13:21:14;24.52;;;17.27;;
57389;SDS011;43217;52.694;6.214;2023-04-16T13:23:39;24.50;;;16.63;;
57389;SDS011;43217;52.694;6.214;2023-04-16T13:26:05;20.50;;;16.00;;
57389;SDS011;43217;52.694;6.214;2023-04-16T13:28:31;23.73;;;16.30;;
57389;SDS011;43217;52.694;6.214;2023-04-16T13:30:57;23.73;;;16.58;;
57389;SDS011;43217;52.694;6.214;2023-04-16T13:33:24;21.67;;;15.85;;
57389;SDS011;43217;52.694;6.214;2023-04-16T13:35:50;20.23;;;15.73;;
57389;SDS011;43217;52.694;6.214;2023-04-16T13:38:16;18.65;;;15.32;;
57389;SDS011;43217;52.694;6.214;2023-04-16T13:40:42;20.20;;;15.85;;
57389;SDS011;43217;52.694;6.214;2023-04-16T13:43:07;19.83;;;16.02;;
57389;SDS011;43217;52.694;6.214;2023-04-16T13:45:33;21.55;;;16.55;;
57389;SDS011;43217;52.694;6.214;2023-04-16T13:47:59;19.10;;;14.60;;
57389;SDS011;43217;52.694;6.214;2023-04-16T13:50:25;21.77;;;16.08;;
57389;SDS011;43217;52.694;6.214;2023-04-16T13:52:50;21.42;;;16.35;;
57389;SDS011;43217;52.694;6.214;2023-04-16T13:55:16;19.80;;;16.60;;
57389;SDS011;43217;52.694;6.214;2023-04-16T13:57:46;23.08;;;16.88;;
57389;SDS011;43217;52.694;6.214;2023-04-16T14:00:12;21.48;;;16.80;;
57389;SDS011;43217;52.694;6.214;2023-04-16T14:02:40;21.35;;;16.20;;
57389;SDS011;43217;52.694;6.214;2023-04-16T14:05:06;21.65;;;15.38;;
57389;SDS011;43217;52.694;6.214;2023-04-16T14:07:32;21.42;;;15.48;;
57389;SDS011;43217;52.694;6.214;2023-04-16T14:09:58;18.65;;;16.20;;
57389;SDS011;43217;52.694;6.214;2023-04-16T14:12:23;20.90;;;16.48;;
57389;SDS011;43217;52.694;6.214;2023-04-16T14:14:49;22.20;;;16.65;;
57389;SDS011;43217;52.694;6.214;2023-04-16T14:17:15;20.83;;;16.33;;
57389;SDS011;43217;52.694;6.214;2023-04-16T14:19:41;20.35;;;15.93;;
57389;SDS011;43217;52.694;6.214;2023-04-16T14:22:06;20.98;;;16.83;;
57389;SDS011;43217;52.694;6.214;2023-04-16T14:24:32;22.45;;;16.85;;
57389;SDS011;43217;52.694;6.214;2023-04-16T14:26:58;20.15;;;15.55;;
57389;SDS011;43217;52.694;6.214;2023-04-16T14:29:23;22.10;;;16.30;;
57389;SDS011;43217;52.694;6.214;2023-04-16T14:31:49;21.20;;;16.08;;
57389;SDS011;43217;52.694;6.214;2023-04-16T14:34:15;22.83;;;16.38;;
57389;SDS011;43217;52.694;6.214;2023-04-16T14:36:41;19.15;;;15.95;;
57389;SDS011;43217;52.694;6.214;2023-04-16T14:39:07;22.15;;;16.95;;